Time;durP1;ratioP1;P1;durP2;ratioP2;P2;SDS_P1;SDS_P2;PMS_P1;PMS_P2;Temp;Humidity;BMP_temperature;BMP_pressure;BME280_temperature;BME280_humidity;BME280_pressure;Samples;Min_cycle;Max_cycle;Signal;HPM_P1;HPM_P2
2022/07/18 00:01:48;;;;;;;2.10;1.10;;;20.50;67.70;;;;;;5055222;28;20072;-63
2022/07/18 00:04:14;;;;;;;3.55;1.30;;;20.40;67.90;;;;;;5055753;28;20098;-63
2022/07/18 00:06:40;;;;;;;2.25;1.20;;;20.30;68.10;;;;;;5056034;28;20368;-63
2022/07/18 00:09:05;;;;;;;3.85;1.85;;;20.30;68.30;;;;;;5056160;28;20076;-62
2022/07/18 00:11:31;;;;;;;4.45;1.20;;;20.10;68.70;;;;;;5056355;28;20394;-63
2022/07/18 00:13:56;;;;;;;3.60;1.30;;;20.00;69.00;;;;;;5054957;28;20132;-62
2022/07/18 00:16:25;;;;;;;1.85;1.27;;;20.00;69.20;;;;;;5055517;28;20074;-64
2022/07/18 00:18:50;;;;;;;1.83;1.23;;;19.90;69.20;;;;;;5055921;28;20505;-63
2022/07/18 00:21:17;;;;;;;4.68;1.30;;;20.00;69.30;;;;;;5056001;28;20064;-61
2022/07/18 00:23:42;;;;;;;4.47;1.40;;;20.00;69.40;;;;;;5055689;28;20115;-63
2022/07/18 00:26:08;;;;;;;2.45;1.20;;;20.00;69.50;;;;;;5055966;28;20049;-63
2022/07/18 00:28:33;;;;;;;5.93;1.45;;;19.90;69.80;;;;;;5055511;28;20058;-62
2022/07/18 00:30:59;;;;;;;4.00;1.52;;;19.90;70.00;;;;;;5055694;28;20040;-60
2022/07/18 00:33:25;;;;;;;3.70;1.45;;;19.80;70.00;;;;;;5055570;28;20086;-62
2022/07/18 00:35:50;;;;;;;2.72;1.40;;;19.80;70.00;;;;;;5055732;28;20061;-63
2022/07/18 00:38:16;;;;;;;2.47;1.50;;;19.80;69.90;;;;;;5055542;28;20037;-61
2022/07/18 00:40:41;;;;;;;3.45;1.50;;;19.80;69.60;;;;;;5055468;28;20027;-63
2022/07/18 00:43:07;;;;;;;1.98;1.60;;;19.80;69.20;;;;;;5055424;28;20496;-63
2022/07/18 00:45:33;;;;;;;4.03;2.08;;;19.80;69.30;;;;;;5055584;28;20555;-63
2022/07/18 00:47:58;;;;;;;3.78;1.48;;;19.80;69.40;;;;;;5055363;28;20056;-64
2022/07/18 00:50:24;;;;;;;1.60;1.00;;;19.80;69.40;;;;;;5054895;28;20056;-64
2022/07/18 00:52:50;;;;;;;6.57;1.50;;;19.70;69.00;;;;;;5054346;28;20057;-63
2022/07/18 00:55:16;;;;;;;3.47;1.90;;;19.70;68.80;;;;;;5054846;28;20094;-62
2022/07/18 00:57:42;;;;;;;3.13;1.40;;;19.70;68.70;;;;;;5054578;28;20100;-64
2022/07/18 01:02:55;;;;;;;4.00;1.45;;;19.60;68.90;;;;;;5054752;28;20036;-63
2022/07/18 01:05:21;;;;;;;3.45;1.80;;;19.60;69.10;;;;;;5054557;28;20414;-63
2022/07/18 01:07:46;;;;;;;3.42;1.10;;;19.50;69.50;;;;;;5054372;28;20029;-64
2022/07/18 01:10:12;;;;;;;2.53;1.40;;;19.40;69.80;;;;;;5054820;28;20041;-63
2022/07/18 01:12:38;;;;;;;2.88;1.48;;;19.40;70.10;;;;;;5055590;28;20055;-63
2022/07/18 01:15:05;;;;;;;2.05;1.10;;;19.40;70.30;;;;;;5055503;28;20470;-63
2022/07/18 01:17:31;;;;;;;3.15;1.48;;;19.30;70.60;;;;;;5054611;28;20120;-64
2022/07/18 01:19:56;;;;;;;2.63;1.27;;;19.30;70.60;;;;;;5054720;28;20470;-62
2022/07/18 01:22:22;;;;;;;2.25;1.30;;;19.20;70.80;;;;;;5053090;28;20035;-63
2022/07/18 01:24:48;;;;;;;3.28;1.60;;;19.20;71.30;;;;;;5055519;28;20021;-63
2022/07/18 01:27:19;;;;;;;2.45;1.70;;;19.10;71.70;;;;;;5056625;28;20057;-64
2022/07/18 01:29:45;;;;;;;2.00;1.40;;;18.90;72.80;;;;;;5057808;28;20017;-63
2022/07/18 01:32:12;;;;;;;1.33;1.10;;;18.90;72.30;;;;;;5076664;22;20045;-60
2022/07/18 01:34:38;;;;;;;3.70;1.50;;;18.90;72.50;;;;;;5053723;28;20098;-61
2022/07/18 01:37:05;;;;;;;5.32;1.95;;;18.80;72.50;;;;;;5053775;28;20078;-60
2022/07/18 01:39:31;;;;;;;2.70;1.13;;;18.80;72.60;;;;;;5053806;28;20026;-59
2022/07/18 01:42:02;;;;;;;3.33;1.70;;;18.70;72.60;;;;;;5053567;28;20029;-59
2022/07/18 01:44:28;;;;;;;2.13;1.40;;;18.70;73.00;;;;;;5052792;28;20029;-57
2022/07/18 01:46:54;;;;;;;2.95;1.75;;;18.60;73.00;;;;;;5053367;28;20091;-56
2022/07/18 01:49:20;;;;;;;1.70;1.30;;;18.60;73.30;;;;;;5053411;28;20025;-60
2022/07/18 01:51:48;;;;;;;3.50;1.60;;;18.60;73.30;;;;;;5053044;28;20060;-61
2022/07/18 01:54:14;;;;;;;3.40;1.20;;;18.60;73.30;;;;;;5053164;28;20469;-61
2022/07/18 01:56:40;;;;;;;1.92;1.35;;;18.60;73.30;;;;;;5053316;28;20025;-60
2022/07/18 01:59:05;;;;;;;3.08;1.52;;;18.60;73.10;;;;;;5053160;28;20048;-61
2022/07/18 02:01:31;;;;;;;2.42;1.30;;;18.70;72.80;;;;;;5052964;28;20033;-61
2022/07/18 02:03:57;;;;;;;4.75;1.48;;;18.70;72.30;;;;;;5051617;28;20056;-60
2022/07/18 02:06:22;;;;;;;3.58;1.40;;;18.70;72.10;;;;;;5052215;28;20079;-60
2022/07/18 02:08:48;;;;;;;4.20;1.42;;;18.80;72.40;;;;;;5053405;28;20029;-60
2022/07/18 02:11:14;;;;;;;1.48;1.20;;;18.70;72.70;;;;;;5052906;28;20083;-61
2022/07/18 02:13:40;;;;;;;2.33;1.20;;;18.70;73.10;;;;;;5053101;28;20021;-61
2022/07/18 02:16:06;;;;;;;5.82;1.50;;;18.60;73.70;;;;;;5053378;28;20070;-61
2022/07/18 02:18:32;;;;;;;2.85;1.30;;;18.40;74.10;;;;;;5051474;28;20033;-59
2022/07/18 02:21:01;;;;;;;;;;;18.40;74.30;;;;;;5053264;28;20032;-60
2022/07/18 02:23:26;;;;;;;1.55;1.20;;;18.30;74.30;;;;;;5053035;28;19995;-61
2022/07/18 02:25:52;;;;;;;7.03;1.10;;;18.30;74.40;;;;;;5052916;28;20108;-60
2022/07/18 02:28:18;;;;;;;2.35;1.50;;;18.20;74.20;;;;;;5053032;28;20056;-57
2022/07/18 02:30:44;;;;;;;2.58;1.58;;;18.20;74.70;;;;;;5052802;28;20591;-60
2022/07/18 02:33:09;;;;;;;2.58;1.17;;;18.10;74.80;;;;;;5053740;28;20120;-58
2022/07/18 02:35:35;;;;;;;2.80;1.40;;;18.10;74.90;;;;;;5053482;28;20104;-62
2022/07/18 02:38:01;;;;;;;2.67;1.35;;;18.00;75.20;;;;;;5052657;28;20048;-61
2022/07/18 02:40:27;;;;;;;3.25;1.40;;;17.90;75.50;;;;;;5052600;28;20452;-58
2022/07/18 02:42:53;;;;;;;6.15;1.40;;;17.80;75.80;;;;;;5052490;28;20244;-57
2022/07/18 02:45:18;;;;;;;3.20;2.10;;;17.80;75.80;;;;;;5052471;28;20036;-55
2022/07/18 02:47:44;;;;;;;2.35;1.40;;;17.70;75.80;;;;;;5052481;28;20060;-61
2022/07/18 02:50:10;;;;;;;4.32;1.50;;;17.60;76.10;;;;;;5052533;28;20501;-59
2022/07/18 02:52:36;;;;;;;1.90;1.35;;;17.60;76.30;;;;;;5052654;28;20032;-61
2022/07/18 02:55:03;;;;;;;3.60;1.60;;;17.60;76.60;;;;;;5052490;28;20025;-60
2022/07/18 02:57:29;;;;;;;5.38;1.50;;;17.60;76.80;;;;;;5052462;28;20033;-60
2022/07/18 02:59:54;;;;;;;4.95;1.30;;;17.60;76.80;;;;;;5052230;28;20112;-61
2022/07/18 03:02:20;;;;;;;5.25;1.88;;;17.50;77.10;;;;;;5050840;28;20120;-60
2022/07/18 03:04:46;;;;;;;4.10;1.30;;;17.40;77.30;;;;;;5052264;28;20064;-60
2022/07/18 03:07:11;;;;;;;2.80;1.42;;;17.40;77.70;;;;;;5052468;28;20565;-59
2022/07/18 03:09:37;;;;;;;2.35;1.27;;;17.30;77.80;;;;;;5051095;28;20025;-60
2022/07/18 03:12:03;;;;;;;2.20;1.30;;;17.30;78.00;;;;;;5052441;28;20032;-58
2022/07/18 03:14:28;;;;;;;1.95;1.40;;;17.20;78.30;;;;;;5052915;28;20731;-60
2022/07/18 03:16:54;;;;;;;2.63;1.33;;;17.20;78.60;;;;;;5054242;28;20037;-61
2022/07/18 03:19:20;;;;;;;3.20;1.50;;;17.20;78.90;;;;;;5056701;28;20374;-60
2022/07/18 03:21:46;;;;;;;3.30;1.60;;;17.20;79.20;;;;;;5056039;28;20033;-61
2022/07/18 03:24:13;;;;;;;1.75;1.35;;;17.20;79.80;;;;;;5055986;28;20029;-61
2022/07/18 03:26:39;;;;;;;3.17;1.58;;;17.20;80.00;;;;;;5055836;28;20108;-61
2022/07/18 03:29:05;;;;;;;2.85;1.55;;;17.20;80.50;;;;;;5055794;28;20460;-60
2022/07/18 03:31:30;;;;;;;2.72;1.20;;;17.10;80.50;;;;;;5055905;28;20037;-61
2022/07/18 03:33:56;;;;;;;2.42;1.30;;;17.10;80.90;;;;;;5056313;28;20040;-59
2022/07/18 03:36:21;;;;;;;5.50;1.48;;;17.10;81.30;;;;;;5056388;28;20045;-60
2022/07/18 03:38:47;;;;;;;2.70;1.57;;;17.00;81.70;;;;;;5055414;28;20035;-61
2022/07/18 03:41:13;;;;;;;4.00;1.30;;;17.00;81.70;;;;;;5057020;28;20139;-61
2022/07/18 03:43:39;;;;;;;3.80;1.58;;;17.00;82.00;;;;;;5057314;28;20268;-60
2022/07/18 03:46:06;;;;;;;2.80;1.77;;;17.00;82.30;;;;;;5057682;28;20068;-61
2022/07/18 03:48:32;;;;;;;4.22;1.60;;;17.00;82.20;;;;;;5056562;28;20036;-62
2022/07/18 03:50:58;;;;;;;5.28;1.65;;;16.90;82.40;;;;;;5056568;28;20033;-60
2022/07/18 03:53:24;;;;;;;2.28;1.38;;;17.00;82.30;;;;;;5056345;28;20021;-60
2022/07/18 03:55:50;;;;;;;2.60;1.30;;;17.00;82.20;;;;;;5055823;28;20017;-60
2022/07/18 03:58:16;;;;;;;3.60;1.63;;;17.00;82.20;;;;;;5055583;28;20039;-61
2022/07/18 04:00:41;;;;;;;3.00;1.42;;;17.10;81.90;;;;;;5055256;28;20025;-60
2022/07/18 04:03:07;;;;;;;2.90;1.40;;;17.10;81.90;;;;;;5054131;28;20036;-60
2022/07/18 04:05:33;;;;;;;2.92;1.30;;;17.10;81.20;;;;;;5054564;28;20028;-60
2022/07/18 04:07:58;;;;;;;2.88;1.63;;;17.10;81.00;;;;;;5055735;28;20029;-60
2022/07/18 04:10:24;;;;;;;1.92;1.40;;;17.20;81.00;;;;;;5054852;28;20086;-61
2022/07/18 04:12:52;;;;;;;2.22;1.15;;;17.20;81.10;;;;;;5054877;28;20108;-59
2022/07/18 04:15:20;;;;;;;2.80;1.50;;;17.20;81.10;;;;;;5054957;28;20115;-58
2022/07/18 04:17:47;;;;;;;2.92;1.20;;;17.20;81.00;;;;;;5055315;28;20032;-60
2022/07/18 04:20:14;;;;;;;4.65;1.30;;;17.20;80.60;;;;;;5055584;28;20025;-62
2022/07/18 04:22:47;;;;;;;3.40;1.55;;;17.20;80.20;;;;;;5055407;28;20031;-60
2022/07/18 04:25:13;;;;;;;7.25;1.75;;;17.20;80.10;;;;;;5054942;28;20567;-59
2022/07/18 04:27:39;;;;;;;3.03;1.33;;;17.20;80.10;;;;;;5054082;28;20068;-61
2022/07/18 04:30:05;;;;;;;2.20;1.50;;;17.20;80.80;;;;;;5054708;28;20615;-59
2022/07/18 04:32:30;;;;;;;;;;;17.10;80.00;;;;;;5054744;28;20283;-61
2022/07/18 04:34:56;;;;;;;3.50;1.38;;;17.20;79.70;;;;;;5054583;28;19904;-61
2022/07/18 04:37:21;;;;;;;3.83;1.17;;;17.20;79.20;;;;;;5054636;28;20025;-61
2022/07/18 04:39:47;;;;;;;2.38;1.30;;;17.30;79.20;;;;;;5052930;28;20032;-60
2022/07/18 04:42:12;;;;;;;2.45;1.33;;;17.30;79.10;;;;;;5054153;28;20024;-60
2022/07/18 04:44:38;;;;;;;5.63;1.50;;;17.40;78.80;;;;;;5054372;28;20039;-61
2022/07/18 04:47:04;;;;;;;3.42;1.50;;;17.50;78.00;;;;;;5054525;28;20048;-61
2022/07/18 04:49:29;;;;;;;5.95;1.45;;;17.50;77.60;;;;;;5053005;28;20084;-64
2022/07/18 04:51:55;;;;;;;3.75;1.20;;;17.60;77.50;;;;;;5054349;28;20092;-64
2022/07/18 04:54:20;;;;;;;2.95;1.33;;;17.70;76.80;;;;;;5054506;28;20482;-64
2022/07/18 04:56:46;;;;;;;8.27;1.48;;;17.70;76.30;;;;;;5053330;28;20549;-63
2022/07/18 04:59:11;;;;;;;3.47;1.35;;;17.80;76.30;;;;;;5054531;28;20028;-66
2022/07/18 05:01:37;;;;;;;2.92;1.35;;;17.90;77.50;;;;;;5052868;28;20116;-64
2022/07/18 05:04:03;;;;;;;1.98;1.02;;;18.00;76.80;;;;;;5054254;28;20100;-64
2022/07/18 05:06:28;;;;;;;4.28;1.50;;;18.00;77.10;;;;;;5054649;28;20469;-64
2022/07/18 05:08:54;;;;;;;3.67;1.58;;;18.00;76.90;;;;;;5053889;28;20497;-64
2022/07/18 05:11:19;;;;;;;6.55;1.42;;;18.10;77.90;;;;;;5052337;28;20500;-64
2022/07/18 05:13:45;;;;;;;2.50;1.35;;;18.10;77.60;;;;;;5053779;28;20029;-59
2022/07/18 05:16:10;;;;;;;3.40;1.67;;;18.10;78.00;;;;;;5053764;28;20029;-62
2022/07/18 05:18:36;;;;;;;5.00;1.60;;;18.10;77.80;;;;;;5053727;28;20272;-61
2022/07/18 05:21:01;;;;;;;2.53;1.40;;;18.20;78.10;;;;;;5053856;28;20079;-60
2022/07/18 05:23:27;;;;;;;5.55;1.83;;;18.30;79.50;;;;;;5054166;28;20029;-62
2022/07/18 05:25:53;;;;;;;5.43;1.70;;;18.40;80.10;;;;;;5052779;28;20393;-63
2022/07/18 05:28:18;;;;;;;2.70;1.35;;;18.40;79.00;;;;;;5054084;28;20024;-62
2022/07/18 05:30:44;;;;;;;3.97;1.40;;;18.40;79.00;;;;;;5053427;28;20037;-66
2022/07/18 05:33:09;;;;;;;5.22;1.70;;;18.50;79.20;;;;;;5053703;28;20503;-63
2022/07/18 05:35:35;;;;;;;6.72;1.65;;;18.50;78.30;;;;;;5053733;28;20500;-65
2022/07/18 05:38:01;;;;;;;3.78;1.60;;;18.50;78.40;;;;;;5053375;28;20401;-63
2022/07/18 05:40:27;;;;;;;6.72;1.63;;;18.60;78.80;;;;;;5053353;28;20048;-66
2022/07/18 05:42:53;;;;;;;4.95;2.10;;;18.60;77.50;;;;;;5053316;28;20396;-63
2022/07/18 05:45:18;;;;;;;5.50;1.73;;;18.70;77.50;;;;;;5052204;28;20021;-63
2022/07/18 05:47:44;;;;;;;5.43;1.67;;;18.70;77.60;;;;;;5053259;28;20059;-63
2022/07/18 05:50:10;;;;;;;4.47;1.70;;;18.70;77.70;;;;;;5052066;28;20032;-64
2022/07/18 05:52:36;;;;;;;4.07;1.35;;;18.70;77.60;;;;;;5052967;28;20090;-63
2022/07/18 05:55:01;;;;;;;9.85;2.58;;;18.80;78.10;;;;;;5052777;28;20029;-63
2022/07/18 05:57:27;;;;;;;4.97;1.42;;;18.90;77.90;;;;;;5052152;28;20079;-63
2022/07/18 05:59:52;;;;;;;3.13;1.25;;;18.90;77.60;;;;;;5051580;28;20037;-64
2022/07/18 06:02:18;;;;;;;4.32;1.10;;;19.00;77.80;;;;;;5052274;28;20029;-63
2022/07/18 06:04:43;;;;;;;4.53;1.50;;;19.10;76.80;;;;;;5052298;28;20028;-63
2022/07/18 06:07:09;;;;;;;4.07;1.70;;;19.20;76.30;;;;;;5050828;28;20046;-63
2022/07/18 06:09:37;;;;;;;2.03;1.40;;;19.40;76.90;;;;;;5050930;28;20054;-63
2022/07/18 06:12:03;;;;;;;10.30;2.55;;;19.40;75.70;;;;;;5052643;28;20033;-62
2022/07/18 06:14:29;;;;;;;5.25;1.98;;;19.60;75.50;;;;;;5052912;28;20033;-64
2022/07/18 06:16:55;;;;;;;3.53;1.50;;;19.60;74.70;;;;;;5053050;28;20033;-64
2022/07/18 06:19:21;;;;;;;2.95;1.48;;;19.70;74.60;;;;;;5053350;28;20033;-62
2022/07/18 06:21:47;;;;;;;4.60;1.40;;;19.80;74.70;;;;;;5051364;28;20052;-63
2022/07/18 06:24:13;;;;;;;3.08;1.33;;;19.90;74.50;;;;;;5053154;28;20339;-62
2022/07/18 06:26:38;;;;;;;4.53;1.48;;;20.00;74.40;;;;;;5052824;28;20059;-63
2022/07/18 06:29:04;;;;;;;4.50;1.45;;;20.10;73.40;;;;;;5052793;28;20033;-59
2022/07/18 06:31:29;;;;;;;6.57;1.55;;;20.10;73.10;;;;;;5053021;28;20052;-56
2022/07/18 06:33:55;;;;;;;4.95;1.50;;;20.30;72.70;;;;;;5054374;28;20060;-58
2022/07/18 06:36:23;;;;;;;5.28;1.40;;;20.30;72.30;;;;;;5052409;28;20115;-60
2022/07/18 06:38:50;;;;;;;3.35;1.30;;;20.40;72.00;;;;;;5055808;28;20390;-62
2022/07/18 06:41:16;;;;;;;3.75;1.40;;;20.50;72.10;;;;;;5054460;28;20021;-62
2022/07/18 06:43:42;;;;;;;4.38;1.30;;;20.50;71.60;;;;;;5052904;28;20023;-62
2022/07/18 06:46:07;;;;;;;3.53;1.20;;;20.60;71.30;;;;;;5051599;28;20028;-59
2022/07/18 06:48:34;;;;;;;2.40;1.30;;;20.70;71.40;;;;;;5051468;28;20071;-61
2022/07/18 06:51:05;;;;;;;4.50;1.70;;;20.80;70.90;;;;;;5051713;28;20029;-62
2022/07/18 06:53:31;;;;;;;2.55;1.55;;;20.90;70.70;;;;;;5056837;28;20039;-61
2022/07/18 06:55:57;;;;;;;3.03;1.38;;;21.00;70.40;;;;;;5056609;28;20025;-63
2022/07/18 06:58:23;;;;;;;5.38;1.17;;;21.20;69.30;;;;;;5057063;28;20075;-63
2022/07/18 07:00:49;;;;;;;3.38;1.42;;;21.30;68.90;;;;;;5056454;28;20025;-63
2022/07/18 07:03:15;;;;;;;4.45;1.30;;;21.30;69.00;;;;;;5055205;28;20025;-63
2022/07/18 07:05:41;;;;;;;5.93;1.50;;;21.40;69.00;;;;;;5056752;28;20021;-62
2022/07/18 07:08:06;;;;;;;2.85;1.73;;;21.50;68.90;;;;;;5056812;28;20056;-63
2022/07/18 07:10:32;;;;;;;3.67;2.28;;;21.60;68.70;;;;;;5057339;28;20052;-62
2022/07/18 07:12:58;;;;;;;5.05;1.55;;;21.70;68.00;;;;;;5058059;28;20033;-63
2022/07/18 07:15:24;;;;;;;5.88;1.40;;;21.70;67.70;;;;;;5057105;28;20029;-62
2022/07/18 07:17:50;;;;;;;5.07;1.45;;;21.80;67.80;;;;;;5056645;28;20036;-63
2022/07/18 07:20:19;;;;;;;2.17;1.08;;;21.90;67.40;;;;;;5056876;28;20170;-63
2022/07/18 07:22:47;;;;;;;3.58;1.42;;;22.00;67.00;;;;;;5056608;28;20036;-62
2022/07/18 07:25:13;;;;;;;3.53;1.15;;;22.20;66.80;;;;;;5056481;28;20032;-61
2022/07/18 07:27:40;;;;;;;2.65;1.10;;;22.30;66.20;;;;;;5056442;28;20029;-63
2022/07/18 07:30:06;;;;;;;2.83;1.23;;;22.50;65.90;;;;;;5056437;28;20084;-60
2022/07/18 07:32:38;;;;;;;;;;;22.50;65.50;;;;;;5080697;22;20049;-62
2022/07/18 07:35:10;;;;;;;7.55;2.20;;;22.60;65.50;;;;;;5056838;28;19909;-62
2022/07/18 07:37:36;;;;;;;3.47;1.10;;;22.70;65.20;;;;;;5056537;28;20105;-62
2022/07/18 07:40:02;;;;;;;2.85;1.35;;;22.80;64.90;;;;;;5056139;28;20489;-62
2022/07/18 07:42:28;;;;;;;3.63;1.10;;;22.90;64.80;;;;;;5055880;28;20029;-62
2022/07/18 07:44:54;;;;;;;2.45;1.63;;;23.10;63.60;;;;;;5056077;28;20051;-61
2022/07/18 07:47:19;;;;;;;6.78;1.42;;;23.20;63.70;;;;;;5056423;28;20029;-64
2022/07/18 07:49:45;;;;;;;;;;;23.30;63.30;;;;;;5056557;28;20025;-62
2022/07/18 07:52:13;;;;;;;4.68;1.35;;;23.40;63.40;;;;;;5056929;28;19950;-61
2022/07/18 07:54:39;;;;;;;5.15;1.17;;;23.50;63.10;;;;;;5054722;28;20393;-62
2022/07/18 07:57:05;;;;;;;3.40;1.08;;;23.70;62.50;;;;;;5054877;28;20120;-63
2022/07/18 07:59:31;;;;;;;4.13;1.20;;;23.90;61.70;;;;;;5055497;28;20159;-62
2022/07/18 08:01:58;;;;;;;4.05;1.60;;;24.10;61.60;;;;;;5055279;28;20505;-63
2022/07/18 08:04:23;;;;;;;3.45;1.45;;;24.10;61.70;;;;;;5054456;28;20481;-63
2022/07/18 08:06:49;;;;;;;;;;;24.20;61.90;;;;;;5054513;28;20025;-61
2022/07/18 08:09:14;;;;;;;2.08;1.15;;;24.40;61.50;;;;;;5056067;28;19905;-63
2022/07/18 08:11:40;;;;;;;;;;;24.70;60.90;;;;;;5055877;28;20025;-61
2022/07/18 08:14:05;;;;;;;5.70;1.38;;;24.90;60.50;;;;;;5055315;28;19959;-63
2022/07/18 08:16:31;;;;;;;;;;;25.20;60.00;;;;;;5055438;28;20444;-62
2022/07/18 08:18:56;;;;;;;1.77;1.40;;;26.60;58.40;;;;;;5054789;28;20000;-63
2022/07/18 08:21:22;;;;;;;3.58;1.63;;;28.50;56.50;;;;;;5054021;28;20057;-64
2022/07/18 08:23:48;;;;;;;1.70;1.17;;;30.70;53.30;;;;;;5053505;28;20124;-64
2022/07/18 08:26:14;;;;;;;4.05;1.50;;;32.30;51.10;;;;;;5055113;28;20017;-63
2022/07/18 08:28:39;;;;;;;4.32;1.50;;;33.40;50.30;;;;;;5053442;28;20029;-64
2022/07/18 08:31:05;;;;;;;2.25;1.50;;;35.10;48.60;;;;;;5053437;28;20033;-64
2022/07/18 08:33:30;;;;;;;2.03;1.20;;;35.90;47.50;;;;;;5055168;28;20029;-64
2022/07/18 08:35:56;;;;;;;1.85;1.25;;;36.40;46.70;;;;;;5054720;28;20051;-62
2022/07/18 08:38:21;;;;;;;6.82;1.38;;;37.30;45.50;;;;;;5055532;28;20033;-62
2022/07/18 08:40:48;;;;;;;4.80;1.55;;;38.10;45.60;;;;;;5056061;28;20029;-62
2022/07/18 08:43:15;;;;;;;4.68;1.40;;;39.10;44.60;;;;;;5055520;28;20013;-64
2022/07/18 08:45:42;;;;;;;2.53;1.85;;;40.10;44.00;;;;;;5054073;28;20127;-64
2022/07/18 08:48:09;;;;;;;2.75;1.20;;;39.50;43.90;;;;;;5055037;28;20044;-64
2022/07/18 08:50:34;;;;;;;3.90;1.60;;;38.70;43.60;;;;;;5054549;28;20028;-65
2022/07/18 08:53:01;;;;;;;8.38;1.73;;;39.70;43.70;;;;;;5054492;28;20112;-65
2022/07/18 08:55:27;;;;;;;1.83;1.40;;;39.80;42.80;;;;;;5054366;28;20067;-64
2022/07/18 08:57:56;;;;;;;5.70;1.42;;;40.10;42.60;;;;;;5055128;28;20017;-64
2022/07/18 09:00:23;;;;;;;3.85;1.33;;;40.50;42.40;;;;;;5053386;28;20039;-64
2022/07/18 09:03:01;;;;;;;3.97;1.45;;;39.20;42.60;;;;;;5054279;28;20029;-64
2022/07/18 09:05:27;;;;;;;4.22;1.80;;;39.50;42.80;;;;;;5054156;28;20041;-64
2022/07/18 09:08:17;;;;;;;6.72;1.70;;;40.40;43.20;;;;;;5054762;28;20025;-64
2022/07/18 09:10:50;;;;;;;4.82;1.38;;;40.50;41.70;;;;;;5053132;28;20052;-64
2022/07/18 09:13:16;;;;;;;1.77;1.20;;;39.40;42.40;;;;;;5054019;28;20052;-64
2022/07/18 09:16:06;;;;;;;2.47;1.48;;;40.40;41.90;;;;;;5054193;28;20384;-64
2022/07/18 09:18:38;;;;;;;3.20;1.50;;;41.50;41.50;;;;;;5053957;28;20021;-63
2022/07/18 09:21:10;;;;;;;3.38;1.42;;;42.50;41.20;;;;;;5053736;28;20473;-62
2022/07/18 09:23:39;;;;;;;2.90;1.38;;;42.70;40.60;;;;;;5053987;28;20029;-63
2022/07/18 09:26:06;;;;;;;4.32;1.75;;;43.40;40.60;;;;;;5054074;28;20044;-63
2022/07/18 09:28:52;;;;;;;2.78;1.45;;;42.10;40.40;;;;;;5054610;28;20466;-62
2022/07/18 09:31:26;;;;;;;3.92;1.40;;;41.20;41.00;;;;;;5053928;28;20028;-64
2022/07/18 09:33:54;;;;;;;3.40;1.70;;;41.50;41.00;;;;;;5054907;28;20017;-63
2022/07/18 09:36:20;;;;;;;2.08;1.50;;;42.20;41.00;;;;;;5054495;28;20025;-63
2022/07/18 09:38:45;;;;;;;3.85;1.42;;;43.30;40.40;;;;;;5054883;28;20075;-63
2022/07/18 09:41:11;;;;;;;2.75;1.50;;;41.80;40.30;;;;;;5054493;28;20448;-63
2022/07/18 09:43:38;;;;;;;3.80;1.40;;;41.20;40.20;;;;;;5054785;28;20021;-64
2022/07/18 09:46:06;;;;;;;2.25;1.40;;;41.90;40.60;;;;;;5054788;28;20078;-64
2022/07/18 09:48:32;;;;;;;2.78;1.60;;;42.90;40.50;;;;;;5052805;28;20021;-63
2022/07/18 09:51:03;;;;;;;5.15;1.60;;;43.10;40.00;;;;;;5053546;28;20021;-64
2022/07/18 09:53:32;;;;;;;3.45;1.65;;;43.90;39.70;;;;;;5054044;28;20178;-64
2022/07/18 09:56:12;;;;;;;5.43;1.63;;;44.00;39.40;;;;;;5053541;28;20025;-64
2022/07/18 09:58:56;;;;;;;6.47;1.55;;;43.60;39.20;;;;;;5053963;28;20029;-64
2022/07/18 10:01:23;;;;;;;5.45;2.20;;;43.20;39.20;;;;;;5052897;28;20031;-64
2022/07/18 10:03:49;;;;;;;2.67;1.35;;;42.70;39.80;;;;;;5054017;28;20031;-65
2022/07/18 10:06:16;;;;;;;4.47;1.55;;;42.40;39.40;;;;;;5054174;28;20498;-64
2022/07/18 10:08:42;;;;;;;3.67;1.67;;;41.40;40.00;;;;;;5054017;28;20060;-64
2022/07/18 10:11:08;;;;;;;3.63;1.77;;;41.40;40.60;;;;;;5053709;28;20025;-63
2022/07/18 10:13:35;;;;;;;3.15;1.42;;;41.90;40.20;;;;;;5054258;28;20055;-64
2022/07/18 10:16:02;;;;;;;4.97;1.55;;;42.80;40.00;;;;;;5057728;28;20094;-64
2022/07/18 10:18:31;;;;;;;4.68;1.63;;;43.20;39.50;;;;;;5055582;28;20052;-64
2022/07/18 10:21:03;;;;;;;3.55;1.40;;;42.80;39.40;;;;;;5056731;28;20025;-64
2022/07/18 10:23:39;;;;;;;2.33;1.50;;;43.90;39.10;;;;;;5054670;28;20021;-65
2022/07/18 10:26:17;;;;;;;4.47;1.75;;;44.10;38.30;;;;;;5052091;28;20457;-65
2022/07/18 10:28:55;;;;;;;2.10;1.60;;;42.60;38.70;;;;;;5054745;28;20021;-64
2022/07/18 10:31:37;;;;;;;6.40;1.63;;;42.10;39.20;;;;;;5053678;28;20118;-59
2022/07/18 10:34:11;;;;;;;4.47;1.63;;;41.30;40.00;;;;;;5055624;28;20080;-62
2022/07/18 10:36:39;;;;;;;4.68;1.95;;;40.70;39.70;;;;;;5052182;28;20025;-61
2022/07/18 10:39:25;;;;;;;2.47;1.60;;;42.00;39.70;;;;;;5052054;28;20124;-62
2022/07/18 10:41:51;;;;;;;2.00;1.50;;;42.80;39.10;;;;;;5052993;28;20036;-62
2022/07/18 10:44:31;;;;;;;3.03;1.50;;;42.80;38.90;;;;;;5051965;28;20382;-61
2022/07/18 10:47:03;;;;;;;1.95;1.67;;;43.10;38.80;;;;;;5052267;28;20032;-61
2022/07/18 10:49:52;;;;;;;2.55;1.67;;;43.90;39.20;;;;;;5053266;28;20025;-62
2022/07/18 10:52:30;;;;;;;2.33;1.55;;;44.30;38.00;;;;;;5054386;28;20502;-62
2022/07/18 10:55:05;;;;;;;2.95;1.70;;;43.10;38.40;;;;;;5050997;28;20025;-62
2022/07/18 10:57:32;;;;;;;3.25;1.50;;;42.80;38.70;;;;;;5052832;28;20086;-62
2022/07/18 11:00:09;;;;;;;4.50;2.28;;;42.20;38.70;;;;;;5051812;28;20029;-61
2022/07/18 11:02:46;;;;;;;7.80;1.50;;;43.10;38.90;;;;;;5051755;28;20473;-62
2022/07/18 11:05:23;;;;;;;3.17;1.50;;;42.70;38.80;;;;;;5052965;28;20037;-61
2022/07/18 11:08:01;;;;;;;2.58;1.60;;;42.10;38.60;;;;;;5052623;28;20025;-61
2022/07/18 11:10:46;;;;;;;2.25;1.40;;;41.30;39.20;;;;;;5052763;28;20056;-62
2022/07/18 11:13:33;;;;;;;3.35;1.73;;;40.70;39.60;;;;;;5051450;28;20021;-61
2022/07/18 11:16:13;;;;;;;2.38;1.60;;;40.70;39.50;;;;;;5052789;28;20029;-61
2022/07/18 11:18:39;;;;;;;4.50;1.83;;;40.40;39.80;;;;;;5052449;28;20025;-62
2022/07/18 11:21:23;;;;;;;2.35;1.90;;;39.20;40.30;;;;;;5052288;28;20036;-62
2022/07/18 11:24:03;;;;;;;2.92;1.50;;;38.00;41.10;;;;;;5052954;28;20017;-63
2022/07/18 11:26:29;;;;;;;3.50;1.55;;;36.40;41.50;;;;;;5052734;28;20111;-62
2022/07/18 11:29:01;;;;;;;2.50;1.30;;;35.30;42.70;;;;;;5053078;28;20035;-62
2022/07/18 11:31:27;;;;;;;4.80;1.60;;;34.60;43.40;;;;;;5052211;28;20055;-61
2022/07/18 11:33:53;;;;;;;3.53;1.55;;;34.40;43.60;;;;;;5052599;28;20033;-63
2022/07/18 11:36:21;;;;;;;2.30;1.55;;;34.30;43.70;;;;;;5052859;28;20029;-62
2022/07/18 11:38:52;;;;;;;3.45;1.60;;;34.30;43.60;;;;;;5054163;28;20429;-62
2022/07/18 11:41:20;;;;;;;2.58;1.40;;;34.30;43.40;;;;;;5054690;28;20036;-61
2022/07/18 11:43:47;;;;;;;2.80;1.30;;;34.10;44.00;;;;;;5054440;28;20021;-61
2022/07/18 11:46:20;;;;;;;2.78;1.40;;;33.90;43.70;;;;;;5056032;28;20021;-61
2022/07/18 11:48:56;;;;;;;1.98;1.40;;;33.90;44.10;;;;;;5055566;28;20104;-60
2022/07/18 11:51:22;;;;;;;;;;;33.90;44.00;;;;;;5056212;28;20021;-61
2022/07/18 11:53:50;;;;;;;2.67;1.37;;;33.60;43.80;;;;;;5055449;28;20368;-60
2022/07/18 11:56:16;;;;;;;1.58;1.20;;;33.40;44.50;;;;;;5055836;28;20100;-60
2022/07/18 11:58:44;;;;;;;2.00;1.55;;;33.00;44.30;;;;;;5055623;28;20465;-60
2022/07/18 12:01:10;;;;;;;2.85;1.80;;;32.70;44.20;;;;;;5055277;28;20100;-60
2022/07/18 12:03:40;;;;;;;3.85;1.20;;;32.60;44.50;;;;;;5055335;28;20021;-61
2022/07/18 12:06:11;;;;;;;1.80;1.10;;;32.50;44.30;;;;;;5053746;28;20112;-61
2022/07/18 12:08:43;;;;;;;2.60;1.38;;;32.50;45.00;;;;;;5055789;28;20025;-61
2022/07/18 12:11:09;;;;;;;6.45;1.30;;;32.60;45.90;;;;;;5055590;28;20024;-61
2022/07/18 12:13:48;;;;;;;2.55;1.30;;;32.80;44.90;;;;;;5055101;28;20119;-61
2022/07/18 12:16:24;;;;;;;3.05;1.40;;;32.80;45.10;;;;;;5055510;28;20477;-61
2022/07/18 12:18:51;;;;;;;4.55;1.60;;;32.90;44.80;;;;;;5055349;28;20029;-62
2022/07/18 12:21:17;;;;;;;2.83;1.48;;;32.90;44.90;;;;;;5055409;28;20112;-62
2022/07/18 12:23:42;;;;;;;1.88;1.15;;;33.00;44.60;;;;;;5055251;28;20112;-62
2022/07/18 12:26:08;;;;;;;1.85;1.17;;;33.00;44.50;;;;;;5054838;28;20032;-63
2022/07/18 12:28:34;;;;;;;1.67;1.30;;;33.10;44.70;;;;;;5054984;28;20036;-62
2022/07/18 12:30:59;;;;;;;4.10;1.38;;;33.20;44.70;;;;;;5054548;28;20021;-62
2022/07/18 12:33:25;;;;;;;2.47;1.20;;;33.10;44.10;;;;;;5053554;28;20434;-60
2022/07/18 12:35:56;;;;;;;2.55;1.27;;;33.10;44.30;;;;;;5055311;28;20147;-61
2022/07/18 12:38:22;;;;;;;4.03;1.10;;;33.00;44.00;;;;;;5055257;28;20033;-61
2022/07/18 12:40:51;;;;;;;3.97;1.20;;;33.00;44.30;;;;;;5054850;28;20029;-59
2022/07/18 12:43:27;;;;;;;3.47;1.75;;;33.00;44.40;;;;;;5053523;28;20496;-60
2022/07/18 12:45:54;;;;;;;2.00;1.20;;;33.00;44.60;;;;;;5055092;28;20021;-61
2022/07/18 12:48:20;;;;;;;2.80;1.30;;;33.00;44.40;;;;;;5054495;28;20025;-61
2022/07/18 12:50:54;;;;;;;3.92;1.27;;;33.00;44.40;;;;;;5053872;28;20021;-62
2022/07/18 12:53:20;;;;;;;2.13;1.33;;;33.10;44.60;;;;;;5052954;28;20032;-61